sensor_id;sensor_type;location;lat;lon;timestamp;P1;durP1;ratioP1;P2;durP2;ratioP2
3307;SDS011;1666;48.898;9.182;2023-06-22T00:01:10;8.25;;;6.70;;
3307;SDS011;1666;48.898;9.182;2023-06-22T00:03:41;10.20;;;7.20;;
3307;SDS011;1666;48.898;9.182;2023-06-22T00:06:10;7.68;;;6.45;;
3307;SDS011;1666;48.898;9.182;2023-06-22T00:08:41;10.88;;;6.82;;
3307;SDS011;1666;48.898;9.182;2023-06-22T00:11:10;10.52;;;6.65;;
3307;SDS011;1666;48.898;9.182;2023-06-22T00:13:43;10.27;;;7.30;;
3307;SDS011;1666;48.898;9.182;2023-06-22T00:16:14;9.63;;;7.65;;
3307;SDS011;1666;48.898;9.182;2023-06-22T00:18:44;10.65;;;7.03;;
3307;SDS011;1666;48.898;9.182;2023-06-22T00:21:15;11.32;;;7.50;;
3307;SDS011;1666;48.898;9.182;2023-06-22T00:23:47;8.73;;;7.03;;
3307;SDS011;1666;48.898;9.182;2023-06-22T00:26:17;9.32;;;6.45;;
3307;SDS011;1666;48.898;9.182;2023-06-22T00:28:49;11.02;;;7.25;;
3307;SDS011;1666;48.898;9.182;2023-06-22T00:31:19;8.68;;;6.63;;
3307;SDS011;1666;48.898;9.182;2023-06-22T00:33:49;7.70;;;6.90;;
3307;SDS011;1666;48.898;9.182;2023-06-22T00:36:19;9.38;;;7.28;;
3307;SDS011;1666;48.898;9.182;2023-06-22T00:38:51;12.40;;;7.72;;
3307;SDS011;1666;48.898;9.182;2023-06-22T00:41:21;8.63;;;7.18;;
3307;SDS011;1666;48.898;9.182;2023-06-22T00:43:57;10.07;;;7.30;;
3307;SDS011;1666;48.898;9.182;2023-06-22T00:46:27;9.80;;;7.45;;
3307;SDS011;1666;48.898;9.182;2023-06-22T00:48:58;12.20;;;7.32;;
3307;SDS011;1666;48.898;9.182;2023-06-22T00:51:30;10.27;;;7.38;;
3307;SDS011;1666;48.898;9.182;2023-06-22T00:54:01;12.15;;;7.90;;
3307;SDS011;1666;48.898;9.182;2023-06-22T00:56:31;10.77;;;7.43;;
3307;SDS011;1666;48.898;9.182;2023-06-22T00:59:06;10.02;;;7.57;;
3307;SDS011;1666;48.898;9.182;2023-06-22T01:01:38;11.13;;;7.55;;
3307;SDS011;1666;48.898;9.182;2023-06-22T01:04:08;9.43;;;7.20;;
3307;SDS011;1666;48.898;9.182;2023-06-22T01:06:40;12.13;;;7.25;;
3307;SDS011;1666;48.898;9.182;2023-06-22T01:09:14;12.07;;;7.75;;
3307;SDS011;1666;48.898;9.182;2023-06-22T01:11:48;9.27;;;7.43;;
3307;SDS011;1666;48.898;9.182;2023-06-22T01:14:28;11.30;;;8.07;;
3307;SDS011;1666;48.898;9.182;2023-06-22T01:17:05;11.02;;;8.18;;
3307;SDS011;1666;48.898;9.182;2023-06-22T01:19:38;10.43;;;8.07;;
3307;SDS011;1666;48.898;9.182;2023-06-22T01:22:14;12.60;;;7.88;;
3307;SDS011;1666;48.898;9.182;2023-06-22T01:24:49;10.50;;;7.70;;
3307;SDS011;1666;48.898;9.182;2023-06-22T01:27:32;9.95;;;7.38;;
3307;SDS011;1666;48.898;9.182;2023-06-22T01:30:14;8.52;;;7.10;;
3307;SDS011;1666;48.898;9.182;2023-06-22T01:32:46;8.05;;;7.18;;
3307;SDS011;1666;48.898;9.182;2023-06-22T01:35:17;9.30;;;7.65;;
3307;SDS011;1666;48.898;9.182;2023-06-22T01:37:48;9.20;;;8.13;;
3307;SDS011;1666;48.898;9.182;2023-06-22T01:40:19;9.20;;;7.95;;
3307;SDS011;1666;48.898;9.182;2023-06-22T01:42:50;12.02;;;7.63;;
3307;SDS011;1666;48.898;9.182;2023-06-22T01:45:23;9.77;;;7.95;;
3307;SDS011;1666;48.898;9.182;2023-06-22T01:47:54;13.27;;;8.32;;
3307;SDS011;1666;48.898;9.182;2023-06-22T01:50:25;9.55;;;8.35;;
3307;SDS011;1666;48.898;9.182;2023-06-22T01:52:56;12.82;;;8.38;;
3307;SDS011;1666;48.898;9.182;2023-06-22T01:55:26;13.40;;;8.30;;
3307;SDS011;1666;48.898;9.182;2023-06-22T01:57:55;11.02;;;8.45;;
3307;SDS011;1666;48.898;9.182;2023-06-22T02:00:28;9.90;;;7.90;;
3307;SDS011;1666;48.898;9.182;2023-06-22T02:03:08;10.82;;;7.63;;
3307;SDS011;1666;48.898;9.182;2023-06-22T02:05:43;11.18;;;8.23;;
3307;SDS011;1666;48.898;9.182;2023-06-22T02:08:17;11.38;;;8.10;;
3307;SDS011;1666;48.898;9.182;2023-06-22T02:10:50;11.48;;;8.45;;
3307;SDS011;1666;48.898;9.182;2023-06-22T02:13:23;11.23;;;7.97;;
3307;SDS011;1666;48.898;9.182;2023-06-22T02:15:56;10.80;;;8.32;;
3307;SDS011;1666;48.898;9.182;2023-06-22T02:18:26;10.50;;;8.00;;
3307;SDS011;1666;48.898;9.182;2023-06-22T02:20:56;12.05;;;8.85;;
3307;SDS011;1666;48.898;9.182;2023-06-22T02:23:26;10.93;;;8.63;;
3307;SDS011;1666;48.898;9.182;2023-06-22T02:25:56;11.77;;;8.40;;
3307;SDS011;1666;48.898;9.182;2023-06-22T02:28:26;12.45;;;8.80;;
3307;SDS011;1666;48.898;9.182;2023-06-22T02:30:58;10.65;;;8.00;;
3307;SDS011;1666;48.898;9.182;2023-06-22T02:33:28;10.88;;;8.60;;
3307;SDS011;1666;48.898;9.182;2023-06-22T02:35:58;11.25;;;8.18;;
3307;SDS011;1666;48.898;9.182;2023-06-22T02:38:31;10.75;;;8.30;;
3307;SDS011;1666;48.898;9.182;2023-06-22T02:41:03;9.45;;;8.00;;
3307;SDS011;1666;48.898;9.182;2023-06-22T02:43:33;11.95;;;8.35;;
3307;SDS011;1666;48.898;9.182;2023-06-22T02:46:05;9.70;;;8.05;;
3307;SDS011;1666;48.898;9.182;2023-06-22T02:48:35;10.52;;;7.70;;
3307;SDS011;1666;48.898;9.182;2023-06-22T02:51:05;15.10;;;8.02;;
3307;SDS011;1666;48.898;9.182;2023-06-22T02:53:35;10.10;;;7.53;;
3307;SDS011;1666;48.898;9.182;2023-06-22T02:56:05;11.63;;;7.82;;
3307;SDS011;1666;48.898;9.182;2023-06-22T02:58:35;9.55;;;7.70;;
3307;SDS011;1666;48.898;9.182;2023-06-22T03:01:08;12.75;;;8.23;;
3307;SDS011;1666;48.898;9.182;2023-06-22T03:06:09;12.30;;;8.20;;
3307;SDS011;1666;48.898;9.182;2023-06-22T03:08:41;10.98;;;8.30;;
3307;SDS011;1666;48.898;9.182;2023-06-22T03:11:11;11.40;;;8.02;;
3307;SDS011;1666;48.898;9.182;2023-06-22T03:13:41;9.52;;;8.52;;
3307;SDS011;1666;48.898;9.182;2023-06-22T03:16:14;10.05;;;7.90;;
3307;SDS011;1666;48.898;9.182;2023-06-22T03:18:44;10.43;;;8.73;;
3307;SDS011;1666;48.898;9.182;2023-06-22T03:21:14;11.60;;;8.40;;
3307;SDS011;1666;48.898;9.182;2023-06-22T03:23:44;10.85;;;8.65;;
3307;SDS011;1666;48.898;9.182;2023-06-22T03:26:16;11.10;;;8.32;;
3307;SDS011;1666;48.898;9.182;2023-06-22T03:28:49;12.95;;;8.05;;
3307;SDS011;1666;48.898;9.182;2023-06-22T03:31:22;9.32;;;7.93;;
3307;SDS011;1666;48.898;9.182;2023-06-22T03:33:52;11.68;;;8.70;;
3307;SDS011;1666;48.898;9.182;2023-06-22T03:36:22;10.35;;;7.85;;
3307;SDS011;1666;48.898;9.182;2023-06-22T03:38:52;14.10;;;8.90;;
3307;SDS011;1666;48.898;9.182;2023-06-22T03:41:22;11.07;;;8.57;;
3307;SDS011;1666;48.898;9.182;2023-06-22T03:43:52;14.60;;;8.73;;
3307;SDS011;1666;48.898;9.182;2023-06-22T03:46:24;13.82;;;8.88;;
3307;SDS011;1666;48.898;9.182;2023-06-22T03:48:54;13.10;;;8.60;;
3307;SDS011;1666;48.898;9.182;2023-06-22T03:51:24;11.57;;;8.45;;
3307;SDS011;1666;48.898;9.182;2023-06-22T03:53:54;13.75;;;9.15;;
3307;SDS011;1666;48.898;9.182;2023-06-22T03:56:24;13.05;;;8.70;;
3307;SDS011;1666;48.898;9.182;2023-06-22T03:58:54;11.52;;;8.82;;
3307;SDS011;1666;48.898;9.182;2023-06-22T04:01:27;12.90;;;8.85;;
3307;SDS011;1666;48.898;9.182;2023-06-22T04:03:57;11.13;;;9.00;;
3307;SDS011;1666;48.898;9.182;2023-06-22T04:06:27;14.45;;;9.10;;
3307;SDS011;1666;48.898;9.182;2023-06-22T04:08:57;13.40;;;8.18;;
3307;SDS011;1666;48.898;9.182;2023-06-22T04:11:27;14.18;;;9.73;;
3307;SDS011;1666;48.898;9.182;2023-06-22T04:13:57;12.50;;;8.77;;
3307;SDS011;1666;48.898;9.182;2023-06-22T04:16:30;13.27;;;8.52;;
3307;SDS011;1666;48.898;9.182;2023-06-22T04:18:59;11.90;;;8.45;;
3307;SDS011;1666;48.898;9.182;2023-06-22T04:21:29;15.50;;;8.02;;
3307;SDS011;1666;48.898;9.182;2023-06-22T04:23:59;11.88;;;8.65;;
3307;SDS011;1666;48.898;9.182;2023-06-22T04:26:29;11.07;;;7.30;;
3307;SDS011;1666;48.898;9.182;2023-06-22T04:29:03;11.48;;;8.05;;
3307;SDS011;1666;48.898;9.182;2023-06-22T04:31:37;13.95;;;7.82;;
3307;SDS011;1666;48.898;9.182;2023-06-22T04:34:07;9.50;;;7.70;;
3307;SDS011;1666;48.898;9.182;2023-06-22T04:36:38;11.55;;;8.60;;
3307;SDS011;1666;48.898;9.182;2023-06-22T04:39:10;9.93;;;7.80;;
3307;SDS011;1666;48.898;9.182;2023-06-22T04:41:40;10.13;;;7.53;;
3307;SDS011;1666;48.898;9.182;2023-06-22T04:44:13;13.13;;;8.50;;
3307;SDS011;1666;48.898;9.182;2023-06-22T04:46:54;10.90;;;7.80;;
3307;SDS011;1666;48.898;9.182;2023-06-22T04:49:29;11.90;;;8.65;;
3307;SDS011;1666;48.898;9.182;2023-06-22T04:52:03;13.18;;;8.32;;
3307;SDS011;1666;48.898;9.182;2023-06-22T04:54:36;12.15;;;8.50;;
3307;SDS011;1666;48.898;9.182;2023-06-22T04:57:14;13.20;;;8.40;;
3307;SDS011;1666;48.898;9.182;2023-06-22T04:59:44;13.38;;;7.63;;
3307;SDS011;1666;48.898;9.182;2023-06-22T05:02:16;14.35;;;8.88;;
3307;SDS011;1666;48.898;9.182;2023-06-22T05:04:46;11.10;;;7.68;;
3307;SDS011;1666;48.898;9.182;2023-06-22T05:07:18;11.88;;;8.65;;
3307;SDS011;1666;48.898;9.182;2023-06-22T05:09:52;12.82;;;8.27;;
3307;SDS011;1666;48.898;9.182;2023-06-22T05:12:22;10.73;;;7.72;;
3307;SDS011;1666;48.898;9.182;2023-06-22T05:14:52;10.57;;;7.85;;
3307;SDS011;1666;48.898;9.182;2023-06-22T05:17:24;10.57;;;7.45;;
3307;SDS011;1666;48.898;9.182;2023-06-22T05:19:54;10.50;;;7.55;;
3307;SDS011;1666;48.898;9.182;2023-06-22T05:22:24;12.32;;;8.20;;
3307;SDS011;1666;48.898;9.182;2023-06-22T05:24:54;12.25;;;8.80;;
3307;SDS011;1666;48.898;9.182;2023-06-22T05:27:24;8.50;;;7.38;;
3307;SDS011;1666;48.898;9.182;2023-06-22T05:29:54;12.38;;;8.57;;
3307;SDS011;1666;48.898;9.182;2023-06-22T05:32:26;12.57;;;8.40;;
3307;SDS011;1666;48.898;9.182;2023-06-22T05:34:56;12.73;;;9.35;;
3307;SDS011;1666;48.898;9.182;2023-06-22T05:37:27;13.30;;;7.70;;
3307;SDS011;1666;48.898;9.182;2023-06-22T05:39:57;10.75;;;8.38;;
3307;SDS011;1666;48.898;9.182;2023-06-22T05:42:28;12.10;;;9.10;;
3307;SDS011;1666;48.898;9.182;2023-06-22T05:44:58;14.00;;;8.73;;
3307;SDS011;1666;48.898;9.182;2023-06-22T05:47:30;12.80;;;8.57;;
3307;SDS011;1666;48.898;9.182;2023-06-22T05:50:00;11.45;;;9.05;;
3307;SDS011;1666;48.898;9.182;2023-06-22T05:52:33;12.63;;;8.38;;
3307;SDS011;1666;48.898;9.182;2023-06-22T05:55:03;16.42;;;8.95;;
3307;SDS011;1666;48.898;9.182;2023-06-22T05:57:34;11.95;;;8.50;;
3307;SDS011;1666;48.898;9.182;2023-06-22T06:00:04;12.23;;;7.70;;
3307;SDS011;1666;48.898;9.182;2023-06-22T06:02:39;12.05;;;8.20;;
3307;SDS011;1666;48.898;9.182;2023-06-22T06:05:11;9.98;;;8.27;;
3307;SDS011;1666;48.898;9.182;2023-06-22T06:07:41;11.93;;;8.25;;
3307;SDS011;1666;48.898;9.182;2023-06-22T06:10:11;10.75;;;8.23;;
3307;SDS011;1666;48.898;9.182;2023-06-22T06:12:41;10.05;;;8.10;;
3307;SDS011;1666;48.898;9.182;2023-06-22T06:15:11;11.77;;;8.02;;
3307;SDS011;1666;48.898;9.182;2023-06-22T06:17:50;9.20;;;7.63;;
3307;SDS011;1666;48.898;9.182;2023-06-22T06:20:22;10.88;;;7.70;;
3307;SDS011;1666;48.898;9.182;2023-06-22T06:22:54;11.83;;;8.10;;
3307;SDS011;1666;48.898;9.182;2023-06-22T06:25:24;12.55;;;7.97;;
3307;SDS011;1666;48.898;9.182;2023-06-22T06:27:54;9.85;;;7.43;;
3307;SDS011;1666;48.898;9.182;2023-06-22T06:30:24;10.50;;;7.20;;
3307;SDS011;1666;48.898;9.182;2023-06-22T06:32:58;9.18;;;7.07;;
3307;SDS011;1666;48.898;9.182;2023-06-22T06:35:28;14.25;;;6.97;;
3307;SDS011;1666;48.898;9.182;2023-06-22T06:37:58;12.20;;;7.32;;
3307;SDS011;1666;48.898;9.182;2023-06-22T06:40:29;10.27;;;7.28;;
3307;SDS011;1666;48.898;9.182;2023-06-22T06:42:59;9.27;;;7.28;;
3307;SDS011;1666;48.898;9.182;2023-06-22T06:45:29;9.52;;;7.07;;
3307;SDS011;1666;48.898;9.182;2023-06-22T06:48:04;15.75;;;7.47;;
3307;SDS011;1666;48.898;9.182;2023-06-22T06:50:34;7.32;;;6.55;;
3307;SDS011;1666;48.898;9.182;2023-06-22T06:53:04;9.10;;;6.93;;
3307;SDS011;1666;48.898;9.182;2023-06-22T06:55:34;9.40;;;7.55;;
3307;SDS011;1666;48.898;9.182;2023-06-22T06:58:04;10.27;;;6.80;;
3307;SDS011;1666;48.898;9.182;2023-06-22T07:00:36;8.63;;;5.78;;
3307;SDS011;1666;48.898;9.182;2023-06-22T07:03:09;11.07;;;6.25;;
3307;SDS011;1666;48.898;9.182;2023-06-22T07:05:39;10.25;;;6.53;;
3307;SDS011;1666;48.898;9.182;2023-06-22T07:08:09;8.40;;;5.95;;
3307;SDS011;1666;48.898;9.182;2023-06-22T07:10:38;8.85;;;5.85;;
3307;SDS011;1666;48.898;9.182;2023-06-22T07:13:08;7.10;;;5.07;;
3307;SDS011;1666;48.898;9.182;2023-06-22T07:15:39;9.05;;;5.93;;
3307;SDS011;1666;48.898;9.182;2023-06-22T07:18:11;7.57;;;5.55;;
3307;SDS011;1666;48.898;9.182;2023-06-22T07:20:41;7.97;;;5.68;;
3307;SDS011;1666;48.898;9.182;2023-06-22T07:23:11;10.63;;;6.07;;
3307;SDS011;1666;48.898;9.182;2023-06-22T07:25:41;10.57;;;6.07;;
3307;SDS011;1666;48.898;9.182;2023-06-22T07:28:11;9.13;;;6.25;;
3307;SDS011;1666;48.898;9.182;2023-06-22T07:30:41;6.63;;;5.40;;
3307;SDS011;1666;48.898;9.182;2023-06-22T07:33:13;8.13;;;5.75;;
3307;SDS011;1666;48.898;9.182;2023-06-22T07:35:44;6.85;;;5.95;;
3307;SDS011;1666;48.898;9.182;2023-06-22T07:38:14;8.45;;;5.88;;
3307;SDS011;1666;48.898;9.182;2023-06-22T07:40:44;11.40;;;5.35;;
3307;SDS011;1666;48.898;9.182;2023-06-22T07:43:14;8.45;;;6.13;;
3307;SDS011;1666;48.898;9.182;2023-06-22T07:45:47;8.55;;;5.68;;
3307;SDS011;1666;48.898;9.182;2023-06-22T07:48:22;7.60;;;5.53;;
3307;SDS011;1666;48.898;9.182;2023-06-22T07:50:52;10.90;;;5.82;;
3307;SDS011;1666;48.898;9.182;2023-06-22T07:53:22;7.28;;;5.45;;
3307;SDS011;1666;48.898;9.182;2023-06-22T07:55:52;9.18;;;5.38;;
3307;SDS011;1666;48.898;9.182;2023-06-22T07:58:22;9.70;;;5.68;;
3307;SDS011;1666;48.898;9.182;2023-06-22T08:00:52;7.38;;;5.25;;
3307;SDS011;1666;48.898;9.182;2023-06-22T08:03:24;8.23;;;5.10;;
3307;SDS011;1666;48.898;9.182;2023-06-22T08:05:54;10.40;;;5.63;;
3307;SDS011;1666;48.898;9.182;2023-06-22T08:08:25;6.97;;;5.57;;
3307;SDS011;1666;48.898;9.182;2023-06-22T08:10:54;6.45;;;5.35;;
3307;SDS011;1666;48.898;9.182;2023-06-22T08:13:24;10.48;;;5.63;;
3307;SDS011;1666;48.898;9.182;2023-06-22T08:15:54;10.82;;;5.22;;
3307;SDS011;1666;48.898;9.182;2023-06-22T08:18:27;9.45;;;4.82;;
3307;SDS011;1666;48.898;9.182;2023-06-22T08:20:57;11.05;;;5.40;;
3307;SDS011;1666;48.898;9.182;2023-06-22T08:23:30;8.55;;;5.40;;
3307;SDS011;1666;48.898;9.182;2023-06-22T08:26:00;6.53;;;4.90;;
3307;SDS011;1666;48.898;9.182;2023-06-22T08:28:30;6.72;;;4.50;;
3307;SDS011;1666;48.898;9.182;2023-06-22T08:31:01;7.57;;;4.75;;
3307;SDS011;1666;48.898;9.182;2023-06-22T08:33:34;7.07;;;5.20;;
3307;SDS011;1666;48.898;9.182;2023-06-22T08:36:15;11.50;;;4.95;;
3307;SDS011;1666;48.898;9.182;2023-06-22T08:38:45;7.45;;;4.90;;
3307;SDS011;1666;48.898;9.182;2023-06-22T08:41:17;10.80;;;4.45;;
3307;SDS011;1666;48.898;9.182;2023-06-22T08:43:47;9.48;;;4.95;;
3307;SDS011;1666;48.898;9.182;2023-06-22T08:46:17;7.72;;;5.10;;
3307;SDS011;1666;48.898;9.182;2023-06-22T08:48:53;8.68;;;4.60;;
3307;SDS011;1666;48.898;9.182;2023-06-22T08:51:23;8.75;;;5.43;;
3307;SDS011;1666;48.898;9.182;2023-06-22T08:53:56;9.75;;;4.95;;
3307;SDS011;1666;48.898;9.182;2023-06-22T08:56:26;8.00;;;4.55;;
3307;SDS011;1666;48.898;9.182;2023-06-22T08:58:55;6.20;;;4.65;;
3307;SDS011;1666;48.898;9.182;2023-06-22T09:01:27;8.15;;;4.50;;
3307;SDS011;1666;48.898;9.182;2023-06-22T09:03:59;11.48;;;4.75;;
3307;SDS011;1666;48.898;9.182;2023-06-22T09:06:31;8.63;;;5.07;;
3307;SDS011;1666;48.898;9.182;2023-06-22T09:09:00;7.10;;;4.40;;
3307;SDS011;1666;48.898;9.182;2023-06-22T09:11:31;7.80;;;4.43;;
3307;SDS011;1666;48.898;9.182;2023-06-22T09:14:01;9.40;;;4.30;;
3307;SDS011;1666;48.898;9.182;2023-06-22T09:16:31;9.70;;;4.50;;
3307;SDS011;1666;48.898;9.182;2023-06-22T09:19:04;7.90;;;5.00;;
3307;SDS011;1666;48.898;9.182;2023-06-22T09:21:34;9.23;;;5.43;;
3307;SDS011;1666;48.898;9.182;2023-06-22T09:24:04;8.63;;;4.90;;
3307;SDS011;1666;48.898;9.182;2023-06-22T09:26:35;8.82;;;4.78;;
3307;SDS011;1666;48.898;9.182;2023-06-22T09:29:05;8.43;;;5.03;;
3307;SDS011;1666;48.898;9.182;2023-06-22T09:31:35;7.35;;;5.40;;
3307;SDS011;1666;48.898;9.182;2023-06-22T09:34:08;10.52;;;4.90;;
3307;SDS011;1666;48.898;9.182;2023-06-22T09:36:38;11.48;;;7.60;;
3307;SDS011;1666;48.898;9.182;2023-06-22T09:39:08;10.07;;;4.85;;
3307;SDS011;1666;48.898;9.182;2023-06-22T09:41:38;9.00;;;5.03;;
3307;SDS011;1666;48.898;9.182;2023-06-22T09:44:08;8.35;;;4.85;;
3307;SDS011;1666;48.898;9.182;2023-06-22T09:46:38;8.05;;;5.60;;
3307;SDS011;1666;48.898;9.182;2023-06-22T09:49:11;10.65;;;4.75;;
3307;SDS011;1666;48.898;9.182;2023-06-22T09:51:41;12.10;;;4.75;;
3307;SDS011;1666;48.898;9.182;2023-06-22T09:54:11;9.18;;;4.32;;
3307;SDS011;1666;48.898;9.182;2023-06-22T09:56:41;8.15;;;4.65;;
3307;SDS011;1666;48.898;9.182;2023-06-22T09:59:11;7.30;;;4.95;;
3307;SDS011;1666;48.898;9.182;2023-06-22T10:01:44;11.75;;;4.82;;
3307;SDS011;1666;48.898;9.182;2023-06-22T10:04:17;11.10;;;4.95;;
3307;SDS011;1666;48.898;9.182;2023-06-22T10:06:47;11.65;;;5.07;;
3307;SDS011;1666;48.898;9.182;2023-06-22T10:09:17;9.25;;;4.97;;
3307;SDS011;1666;48.898;9.182;2023-06-22T10:11:47;9.13;;;5.22;;
3307;SDS011;1666;48.898;9.182;2023-06-22T10:14:17;14.50;;;5.30;;
3307;SDS011;1666;48.898;9.182;2023-06-22T10:16:48;10.48;;;4.85;;
3307;SDS011;1666;48.898;9.182;2023-06-22T10:19:21;8.70;;;4.80;;
3307;SDS011;1666;48.898;9.182;2023-06-22T10:21:50;10.98;;;5.13;;
3307;SDS011;1666;48.898;9.182;2023-06-22T10:24:22;12.25;;;5.80;;
3307;SDS011;1666;48.898;9.182;2023-06-22T10:26:51;8.65;;;4.60;;
3307;SDS011;1666;48.898;9.182;2023-06-22T10:29:21;10.23;;;4.72;;
3307;SDS011;1666;48.898;9.182;2023-06-22T10:31:51;9.70;;;4.82;;
3307;SDS011;1666;48.898;9.182;2023-06-22T10:34:24;11.35;;;5.20;;
3307;SDS011;1666;48.898;9.182;2023-06-22T10:36:54;9.63;;;5.00;;
3307;SDS011;1666;48.898;9.182;2023-06-22T10:39:24;7.68;;;4.80;;
3307;SDS011;1666;48.898;9.182;2023-06-22T10:41:54;7.40;;;4.85;;
3307;SDS011;1666;48.898;9.182;2023-06-22T10:44:24;8.82;;;4.85;;
3307;SDS011;1666;48.898;9.182;2023-06-22T10:46:54;9.98;;;4.40;;
3307;SDS011;1666;48.898;9.182;2023-06-22T10:49:28;12.23;;;4.90;;
3307;SDS011;1666;48.898;9.182;2023-06-22T10:51:57;8.40;;;4.93;;
3307;SDS011;1666;48.898;9.182;2023-06-22T10:54:27;9.65;;;5.25;;
3307;SDS011;1666;48.898;9.182;2023-06-22T10:56:57;10.35;;;5.38;;
3307;SDS011;1666;48.898;9.182;2023-06-22T10:59:27;9.38;;;4.85;;
3307;SDS011;1666;48.898;9.182;2023-06-22T11:01:58;11.60;;;4.65;;
3307;SDS011;1666;48.898;9.182;2023-06-22T11:04:31;10.48;;;5.05;;
3307;SDS011;1666;48.898;9.182;2023-06-22T11:07:02;12.07;;;4.80;;
3307;SDS011;1666;48.898;9.182;2023-06-22T11:09:32;6.63;;;4.25;;
3307;SDS011;1666;48.898;9.182;2023-06-22T11:12:02;10.63;;;4.85;;
3307;SDS011;1666;48.898;9.182;2023-06-22T11:14:33;10.13;;;5.22;;
3307;SDS011;1666;48.898;9.182;2023-06-22T11:17:03;7.18;;;4.30;;
3307;SDS011;1666;48.898;9.182;2023-06-22T11:19:36;8.93;;;4.68;;
3307;SDS011;1666;48.898;9.182;2023-06-22T11:22:06;12.43;;;4.63;;
3307;SDS011;1666;48.898;9.182;2023-06-22T11:24:36;10.43;;;4.50;;
3307;SDS011;1666;48.898;9.182;2023-06-22T11:27:06;10.00;;;4.88;;
3307;SDS011;1666;48.898;9.182;2023-06-22T11:29:36;10.95;;;4.53;;
3307;SDS011;1666;48.898;9.182;2023-06-22T11:32:06;9.93;;;4.82;;
3307;SDS011;1666;48.898;9.182;2023-06-22T11:34:42;7.13;;;4.25;;
3307;SDS011;1666;48.898;9.182;2023-06-22T11:37:12;10.30;;;4.60;;
3307;SDS011;1666;48.898;9.182;2023-06-22T11:39:42;10.90;;;5.03;;
3307;SDS011;1666;48.898;9.182;2023-06-22T11:42:19;11.57;;;4.40;;
3307;SDS011;1666;48.898;9.182;2023-06-22T11:44:50;8.50;;;4.50;;
3307;SDS011;1666;48.898;9.182;2023-06-22T11:47:20;11.48;;;5.07;;
3307;SDS011;1666;48.898;9.182;2023-06-22T11:49:52;10.18;;;5.28;;
3307;SDS011;1666;48.898;9.182;2023-06-22T11:52:22;9.00;;;4.50;;
3307;SDS011;1666;48.898;9.182;2023-06-22T11:54:52;12.27;;;4.65;;
3307;SDS011;1666;48.898;9.182;2023-06-22T11:57:22;8.05;;;4.97;;
3307;SDS011;1666;48.898;9.182;2023-06-22T11:59:52;14.57;;;4.47;;
3307;SDS011;1666;48.898;9.182;2023-06-22T12:02:22;10.30;;;4.78;;
3307;SDS011;1666;48.898;9.182;2023-06-22T12:04:55;8.90;;;4.57;;
3307;SDS011;1666;48.898;9.182;2023-06-22T12:07:25;8.80;;;5.00;;
3307;SDS011;1666;48.898;9.182;2023-06-22T12:09:54;10.57;;;4.50;;
3307;SDS011;1666;48.898;9.182;2023-06-22T12:12:24;9.38;;;4.35;;
3307;SDS011;1666;48.898;9.182;2023-06-22T12:14:54;9.52;;;4.45;;
3307;SDS011;1666;48.898;9.182;2023-06-22T12:17:27;8.35;;;4.65;;
3307;SDS011;1666;48.898;9.182;2023-06-22T12:20:00;9.02;;;4.35;;
3307;SDS011;1666;48.898;9.182;2023-06-22T12:22:31;9.30;;;4.50;;
3307;SDS011;1666;48.898;9.182;2023-06-22T12:25:01;12.15;;;5.07;;
3307;SDS011;1666;48.898;9.182;2023-06-22T12:27:32;19.08;;;4.78;;
3307;SDS011;1666;48.898;9.182;2023-06-22T12:30:01;13.30;;;4.78;;
3307;SDS011;1666;48.898;9.182;2023-06-22T12:32:32;11.57;;;4.78;;
3307;SDS011;1666;48.898;9.182;2023-06-22T12:35:05;10.68;;;4.60;;
3307;SDS011;1666;48.898;9.182;2023-06-22T12:37:40;13.52;;;5.15;;
3307;SDS011;1666;48.898;9.182;2023-06-22T12:40:11;9.07;;;4.60;;
3307;SDS011;1666;48.898;9.182;2023-06-22T12:42:41;9.63;;;4.38;;
3307;SDS011;1666;48.898;9.182;2023-06-22T12:45:11;7.93;;;4.45;;
3307;SDS011;1666;48.898;9.182;2023-06-22T12:47:41;10.70;;;5.13;;
3307;SDS011;1666;48.898;9.182;2023-06-22T12:50:14;9.75;;;4.88;;
3307;SDS011;1666;48.898;9.182;2023-06-22T12:52:44;14.07;;;5.00;;
3307;SDS011;1666;48.898;9.182;2023-06-22T12:55:14;8.68;;;4.78;;
3307;SDS011;1666;48.898;9.182;2023-06-22T12:57:44;10.13;;;4.93;;
3307;SDS011;1666;48.898;9.182;2023-06-22T13:00:15;11.35;;;5.13;;
3307;SDS011;1666;48.898;9.182;2023-06-22T13:02:46;11.63;;;5.00;;
3307;SDS011;1666;48.898;9.182;2023-06-22T13:05:19;8.20;;;4.88;;
3307;SDS011;1666;48.898;9.182;2023-06-22T13:07:49;10.05;;;4.80;;
3307;SDS011;1666;48.898;9.182;2023-06-22T13:10:19;13.52;;;5.72;;
3307;SDS011;1666;48.898;9.182;2023-06-22T13:12:49;12.80;;;4.95;;
3307;SDS011;1666;48.898;9.182;2023-06-22T13:15:27;13.05;;;5.50;;
3307;SDS011;1666;48.898;9.182;2023-06-22T13:17:58;9.45;;;5.20;;
3307;SDS011;1666;48.898;9.182;2023-06-22T13:20:31;12.50;;;5.82;;
3307;SDS011;1666;48.898;9.182;2023-06-22T13:23:00;12.68;;;5.15;;
3307;SDS011;1666;48.898;9.182;2023-06-22T13:25:30;11.60;;;5.07;;
3307;SDS011;1666;48.898;9.182;2023-06-22T13:28:01;13.07;;;5.70;;
3307;SDS011;1666;48.898;9.182;2023-06-22T13:30:35;15.63;;;5.15;;
3307;SDS011;1666;48.898;9.182;2023-06-22T13:33:05;11.73;;;5.32;;
3307;SDS011;1666;48.898;9.182;2023-06-22T13:35:38;9.70;;;5.03;;
3307;SDS011;1666;48.898;9.182;2023-06-22T13:38:09;14.13;;;5.95;;
3307;SDS011;1666;48.898;9.182;2023-06-22T13:40:39;10.77;;;5.28;;
3307;SDS011;1666;48.898;9.182;2023-06-22T13:43:08;9.60;;;4.63;;
3307;SDS011;1666;48.898;9.182;2023-06-22T13:45:38;10.75;;;4.80;;
3307;SDS011;1666;48.898;9.182;2023-06-22T13:48:08;12.52;;;5.32;;
3307;SDS011;1666;48.898;9.182;2023-06-22T13:50:41;13.02;;;5.55;;
3307;SDS011;1666;48.898;9.182;2023-06-22T13:53:12;16.27;;;5.80;;
3307;SDS011;1666;48.898;9.182;2023-06-22T13:55:42;13.52;;;5.22;;
3307;SDS011;1666;48.898;9.182;2023-06-22T13:58:13;19.63;;;6.50;;
3307;SDS011;1666;48.898;9.182;2023-06-22T14:00:43;9.95;;;5.28;;
3307;SDS011;1666;48.898;9.182;2023-06-22T14:03:13;12.77;;;5.13;;
3307;SDS011;1666;48.898;9.182;2023-06-22T14:05:46;13.10;;;5.45;;
3307;SDS011;1666;48.898;9.182;2023-06-22T14:08:16;12.32;;;5.85;;
3307;SDS011;1666;48.898;9.182;2023-06-22T14:11:06;11.52;;;5.18;;
3307;SDS011;1666;48.898;9.182;2023-06-22T14:13:36;10.77;;;4.72;;
3307;SDS011;1666;48.898;9.182;2023-06-22T14:16:08;14.73;;;5.60;;
3307;SDS011;1666;48.898;9.182;2023-06-22T14:18:39;16.08;;;4.93;;
3307;SDS011;1666;48.898;9.182;2023-06-22T14:21:11;12.93;;;5.30;;
3307;SDS011;1666;48.898;9.182;2023-06-22T14:23:41;12.27;;;5.47;;
3307;SDS011;1666;48.898;9.182;2023-06-22T14:26:15;12.13;;;5.40;;
3307;SDS011;1666;48.898;9.182;2023-06-22T14:28:46;14.82;;;6.00;;
3307;SDS011;1666;48.898;9.182;2023-06-22T14:31:17;11.10;;;5.70;;
3307;SDS011;1666;48.898;9.182;2023-06-22T14:33:48;13.30;;;5.80;;
3307;SDS011;1666;48.898;9.182;2023-06-22T14:36:21;12.07;;;6.10;;
3307;SDS011;1666;48.898;9.182;2023-06-22T14:38:51;10.13;;;5.43;;
3307;SDS011;1666;48.898;9.182;2023-06-22T14:41:21;17.55;;;6.35;;
3307;SDS011;1666;48.898;9.182;2023-06-22T14:43:51;16.58;;;5.18;;
3307;SDS011;1666;48.898;9.182;2023-06-22T14:46:21;12.50;;;4.80;;
3307;SDS011;1666;48.898;9.182;2023-06-22T14:48:51;13.10;;;5.07;;
3307;SDS011;1666;48.898;9.182;2023-06-22T14:51:24;9.88;;;4.60;;
3307;SDS011;1666;48.898;9.182;2023-06-22T14:53:54;14.00;;;5.10;;
3307;SDS011;1666;48.898;9.182;2023-06-22T14:56:24;12.65;;;5.18;;
3307;SDS011;1666;48.898;9.182;2023-06-22T14:58:54;14.50;;;4.55;;
3307;SDS011;1666;48.898;9.182;2023-06-22T15:01:24;16.48;;;3.47;;
3307;SDS011;1666;48.898;9.182;2023-06-22T15:03:54;12.15;;;3.83;;
3307;SDS011;1666;48.898;9.182;2023-06-22T15:06:27;14.13;;;3.30;;
3307;SDS011;1666;48.898;9.182;2023-06-22T15:08:57;11.68;;;3.25;;
3307;SDS011;1666;48.898;9.182;2023-06-22T15:11:27;11.38;;;3.10;;
3307;SDS011;1666;48.898;9.182;2023-06-22T15:13:58;13.23;;;3.45;;
3307;SDS011;1666;48.898;9.182;2023-06-22T15:16:28;13.88;;;3.08;;
3307;SDS011;1666;48.898;9.182;2023-06-22T15:18:58;13.88;;;2.80;;
3307;SDS011;1666;48.898;9.182;2023-06-22T15:21:31;9.90;;;3.63;;
3307;SDS011;1666;48.898;9.182;2023-06-22T15:24:01;10.13;;;2.90;;
3307;SDS011;1666;48.898;9.182;2023-06-22T15:26:31;10.70;;;3.20;;
3307;SDS011;1666;48.898;9.182;2023-06-22T15:29:01;11.65;;;2.95;;
3307;SDS011;1666;48.898;9.182;2023-06-22T15:31:31;11.15;;;3.40;;